Logo AVAMET
Benvolgut visitant, si us plau, ingressa Recuperar contrasenya

Sella poble

Dades diàries. Acumulats / Últims 30 dies disponibles

Data Temperatura (°C) Humitat rel. (%) Pressió rel. (hPa) Vent (km/h) Precipitació
Mínima Mitjana Màxima Amplitud
tèrmica
Mínima Mitjana Màxima Mínima Mitjana Màxima Predom. Mitjana Ràfega
màxima
Total
(mm)
Índex-n
Mínima Mitjana Màxima Mínima Mitjana Màxima n
0 a 1
P0 max
mm 5'
Dades mensuals acumulades fins l'últim dia disponible
01/2020 4,2 6,5 9,3 9,8 12,4 13,9 16,8 12,6 17 72 98 1.010 1.024 1.031   8,7 55,5 179,2
Dades anuals acumulades fins l'últim dia disponible
2020 4,2 6,5 9,3 9,8 12,4 13,9 16,8 12,6 17 72 98 1.010 1.024 1.031   8,7 55,5 179,2
Últims 30 dies disponibles
20-01-2020 5,4     9,2     12,8 7,4 87 91 94 1.014 1.015 1.016 WNW 11,7 55,5 121,5
19-01-2020 5,7     10,2     12,8 7,1 66 78 89 1.010 1.013 1.018 O 11,0 55,3 36,1
18-01-2020 9,3     11,3     14,1 4,8 42 65 84 1.018 1.025 1.029 NW 7,4 18,5 0,0
17-01-2020 9,2     13,3     16,8 7,6 20 46 75 1.024 1.026 1.030 WNW 9,2 35,1 0,0
16-01-2020 9,3     12,3     16,2 6,9 59 72 83 1.024 1.025 1.026 NW 8,5 20,4 0,0
15-01-2020 7,3     10,9     14,9 7,6 34 62 82 1.020 1.022 1.026 NW 6,0 20,4 0,0
14-01-2020 6,0     9,4     14,3 8,3 19 44 83 1.018 1.019 1.021 NW 9,1 24,1 0,0
13-01-2020 4,2     8,1     13,4 9,2 18 50 84 1.019 1.022 1.027 NW 10,3 22,2 0,0
12-01-2020 4,7     8,0     13,1 8,4 50 70 89 1.024 1.026 1.028 NW 7,4 22,2 0,0
11-01-2020 5,2     9,7     13,9 8,7 54 72 85 1.023 1.026 1.028 W 7,3 37,0 0,0
10-01-2020 7,2     9,8     13,5 6,3 44 78 95 1.019 1.021 1.025 WNW 8,3 44,4 21,6 0,37 1,70
09-01-2020 6,1     9,0     13,6 7,5 71 86 95 1.022 1.024 1.028 NW 9,4 22,2 0,0
08-01-2020 7,2     10,3     13,6 6,4 31 66 96 1.024 1.026 1.028 NW 10,2 22,2 0,0
07-01-2020 6,1     9,2     13,7 7,6 60 83 97 1.026 1.027 1.029 NW 7,8 22,2 0,0
06-01-2020 6,4     9,7     13,5 7,1 17 60 98 1.024 1.026 1.027 NW 8,5 22,2 0,0
05-01-2020 6,0     9,5     15,2 9,2 21 66 85 1.024 1.026 1.029 NW 11,1 22,2 0,0
04-01-2020 6,4     9,0     12,8 6,4 76 86 97 1.028 1.029 1.031 NW 9,1 22,2 0,0
03-01-2020 5,4     8,8     13,0 7,6 70 84 97 1.026 1.028 1.030 NW 5,0 16,6 0,0
02-01-2020 6,2     8,5     12,4 6,2 73 90 97 1.027 1.029 1.031 NW 7,6 18,5 0,0
01-01-2020 6,0     9,4     13,7 7,7 67 84 98 1.027 1.029 1.030 NW 8,9 22,2 0,0
31-12-2019 6,2     8,6     12,4 6,2 78 89 95 1.028 1.029 1.032 NW 9,6 20,4 0,0
30-12-2019 7,3     9,5     13,0 5,7 68 87 94 1.028 1.029 1.031 NW 7,7 20,4 0,0
29-12-2019 6,1     10,0     14,7 8,6 73 89 98 1.026 1.029 1.031 NW 8,3 22,2 0,0
28-12-2019 6,9     10,4     13,5 6,6 22 70 98 1.026 1.027 1.030 NW 10,0 24,1 0,0
27-12-2019 9,1     12,1     16,7 7,6 31 71 94 1.025 1.027 1.028 NW 10,4 24,1 0,0
26-12-2019 11,3     17,7     22,8 11,5 11 29 71 1.020 1.023 1.028 NNW 5,2 18,5 0,0
25-12-2019 12,9     15,5     20,2 7,3 32 59 84 1.021 1.022 1.025 NW 10,4 22,2 0,0
24-12-2019 13,5     16,7     21,3 7,8 30 49 68 1.024 1.025 1.027 NW 9,0 22,2 0,0
23-12-2019 12,5     16,0     19,8 7,3 19 50 69 1.018 1.023 1.026 W 9,9 53,6 0,0
22-12-2019 13,8     16,0     19,1 5,3 32 50 62 1.005 1.014 1.018 W 14,5 48,1 0,0
Últims 13 mesos disponibles
12/2019 6,1 10,2 14,9 13,0 11,9 16,5 22,8 16,7 29 69 92 1.004 1.017 1.029 NW 8,9 70,3 96,7
11/2019 4,5 10,8 18,6 13,6 12,3 17,2 24,7 20,2 42 62 92 998 1.009 1.017 WNW 10,1 72,2 25,8
10/2019 9,7 15,4 19,5 18,7 15,2 22,8 28,5 18,8 42 72 91 1.007 1.016 1.021 NW 7,6 77,7 67,1
09/2019 13,9 18,7 21,6 22,2 21,1 26,0 30,5 16,6 45 80 93 1.010 1.017 1.021 NW 7,2 50,0 142,7
08/2019 18,2 21,4 26,3 25,3 26,5 30,1 36,2 18,0 21 66 86 1.012 1.016 1.020 NW 7,0 29,6 11,6
07/2019 19,0 21,3 24,9 26,0 26,6 31,0 36,6 17,6 17 52 91 1.007 1.014 1.020 NW 7,1 35,1 4,7
06/2019 12,6 17,4 25,5 22,1 21,7 27,1 35,9 23,3 14 51 88 1.008 1.014 1.021 NW 7,2 37,4 0,5
05/2019 8,4 13,1 19,5 17,1 15,4 21,5 27,4 19,0 39 68 89 1.004 1.014 1.023 NW 6,3 52,2 11,7
04/2019 7,0 10,3 13,5 13,6 12,6 17,5 26,2 19,2 27 71 94 999 1.011 1.023 NW 6,5 61,0 210,7
03/2019 5,6 9,4 14,6 13,5 11,4 18,0 25,3 19,7 11 48 90 1.009 1.020 1.027 NW 8,1 51,8 30,6
02/2019 2,4 7,4 13,5 11,3 9,9 16,5 22,3 19,9 13 48 80 995 1.021 1.029 NW 9,3 66,6 0,5
01/2019 1,9 7,0 11,1 10,2 9,7 14,3 18,8 16,9 26 55 86 1.002 1.016 1.027 NNW 9,1 68,5 9,5
12/2018 5,9 9,3 15,1 13,0 12,7 17,5 22,7 16,8 26 62 85 1.007 1.022 1.028 NNW 7,6 62,9 47,8
Tots els anys disponibles
2019 1,9 13,6 26,3 17,2 9,7 21,6 36,6 34,7 11 62 94 995 1.015 1.029 NW 7,9 77,7 612,1
2018 1,5 13,4 25,6 17,0 6,9 21,3 33,7 32,2 26 70 93 998 1.017 1.028 NW 6,9 70,3 555,7
2017 0,2 13,4 26,9 17,2 5,7 21,7 37,0 36,8 32 50 68 1.010 1.015 1.021 7,3 64,8 559,8
2016 2,7 13,8 26,9 17,3 8,3 21,5 37,1 34,4 7,0 66,6 475,5
Temperatura (°C)
Humitat relativa (%)
Velocitat del vent i ràfega màxima (km/h)
Direcció del vent (°)
Pressió (hPa)
Precipitació (mm)
Nota sobre les dades: s'avisa a l'usuari de la provisionalitat i no oficialitat d'aquestes dades
Logo AVAMET blanc
Web allotjada a Sollutia
Llicència de Creative CommonsLa web d'AVAMET i els seus continguts estan subjectes a una llicència de
Reconeixement - No Comercial - Compartir igual
Últimes estacions: Xixona - Els Ameradors (Soci), Agres - El Tossal (Soci), Xàbia - Bevenguts (MeteoXàbia), Llíria (Aj. Soci/Inforatge), Orihuela - Lo Capitán, Cox & Guardamar del Segura - horta (Meteorihuela), l'Alcúdia - Carriona & el Real de Gandia (Inforatge), Benicàssim - les Vil·les (Soci),  l'Alfàs del Pi - l'Albir (Soci), - - -